sensor_id;sensor_type;location;lat;lon;timestamp;P1;durP1;ratioP1;P2;durP2;ratioP2
2219;SDS011;1116;51.502;7.414;2024-01-06T00:01:46;10.20;;;6.68;;
2219;SDS011;1116;51.502;7.414;2024-01-06T00:04:16;11.95;;;6.72;;
2219;SDS011;1116;51.502;7.414;2024-01-06T00:06:48;10.38;;;6.30;;
2219;SDS011;1116;51.502;7.414;2024-01-06T00:09:18;12.40;;;6.25;;
2219;SDS011;1116;51.502;7.414;2024-01-06T00:11:48;10.25;;;7.30;;
2219;SDS011;1116;51.502;7.414;2024-01-06T00:14:18;13.63;;;8.32;;
2219;SDS011;1116;51.502;7.414;2024-01-06T00:16:48;14.05;;;6.82;;
2219;SDS011;1116;51.502;7.414;2024-01-06T00:19:18;9.32;;;6.35;;
2219;SDS011;1116;51.502;7.414;2024-01-06T00:21:50;13.73;;;8.13;;
2219;SDS011;1116;51.502;7.414;2024-01-06T00:24:20;10.07;;;6.70;;
2219;SDS011;1116;51.502;7.414;2024-01-06T00:26:50;11.30;;;7.03;;
2219;SDS011;1116;51.502;7.414;2024-01-06T00:29:20;16.05;;;7.47;;
2219;SDS011;1116;51.502;7.414;2024-01-06T00:31:49;14.15;;;7.70;;
2219;SDS011;1116;51.502;7.414;2024-01-06T00:34:19;11.57;;;7.50;;
2219;SDS011;1116;51.502;7.414;2024-01-06T00:36:52;12.13;;;8.13;;
2219;SDS011;1116;51.502;7.414;2024-01-06T00:39:22;12.07;;;7.70;;
2219;SDS011;1116;51.502;7.414;2024-01-06T00:41:51;13.57;;;8.38;;
2219;SDS011;1116;51.502;7.414;2024-01-06T00:44:21;15.23;;;8.75;;
2219;SDS011;1116;51.502;7.414;2024-01-06T00:46:51;15.65;;;7.65;;
2219;SDS011;1116;51.502;7.414;2024-01-06T00:49:21;12.18;;;7.93;;
2219;SDS011;1116;51.502;7.414;2024-01-06T00:51:54;15.20;;;8.60;;
2219;SDS011;1116;51.502;7.414;2024-01-06T00:54:24;13.55;;;8.63;;
2219;SDS011;1116;51.502;7.414;2024-01-06T00:56:53;14.02;;;8.82;;
2219;SDS011;1116;51.502;7.414;2024-01-06T00:59:24;13.68;;;8.02;;
2219;SDS011;1116;51.502;7.414;2024-01-06T01:01:54;13.73;;;8.80;;
2219;SDS011;1116;51.502;7.414;2024-01-06T01:04:24;13.32;;;7.95;;
2219;SDS011;1116;51.502;7.414;2024-01-06T01:06:56;12.77;;;8.38;;
2219;SDS011;1116;51.502;7.414;2024-01-06T01:09:26;14.73;;;8.45;;
2219;SDS011;1116;51.502;7.414;2024-01-06T01:11:56;16.92;;;9.63;;
2219;SDS011;1116;51.502;7.414;2024-01-06T01:14:26;16.77;;;9.77;;
2219;SDS011;1116;51.502;7.414;2024-01-06T01:16:56;15.45;;;9.05;;
2219;SDS011;1116;51.502;7.414;2024-01-06T01:19:25;15.45;;;9.27;;
2219;SDS011;1116;51.502;7.414;2024-01-06T01:21:58;17.38;;;10.48;;
2219;SDS011;1116;51.502;7.414;2024-01-06T01:24:28;18.30;;;9.73;;
2219;SDS011;1116;51.502;7.414;2024-01-06T01:26:58;17.40;;;10.23;;
2219;SDS011;1116;51.502;7.414;2024-01-06T01:29:27;16.30;;;9.98;;
2219;SDS011;1116;51.502;7.414;2024-01-06T01:31:57;16.88;;;9.70;;
2219;SDS011;1116;51.502;7.414;2024-01-06T01:34:27;37.03;;;19.17;;
2219;SDS011;1116;51.502;7.414;2024-01-06T01:37:00;28.63;;;15.85;;
2219;SDS011;1116;51.502;7.414;2024-01-06T01:39:30;29.52;;;15.77;;
2219;SDS011;1116;51.502;7.414;2024-01-06T01:42:00;33.08;;;15.95;;
2219;SDS011;1116;51.502;7.414;2024-01-06T01:44:30;21.73;;;11.23;;
2219;SDS011;1116;51.502;7.414;2024-01-06T01:47:00;24.00;;;13.82;;
2219;SDS011;1116;51.502;7.414;2024-01-06T01:49:30;23.67;;;13.70;;
2219;SDS011;1116;51.502;7.414;2024-01-06T01:52:03;20.92;;;11.63;;
2219;SDS011;1116;51.502;7.414;2024-01-06T01:54:33;19.65;;;11.73;;
2219;SDS011;1116;51.502;7.414;2024-01-06T01:57:03;23.02;;;12.63;;
2219;SDS011;1116;51.502;7.414;2024-01-06T01:59:33;18.05;;;10.98;;
2219;SDS011;1116;51.502;7.414;2024-01-06T02:02:03;15.82;;;10.15;;
2219;SDS011;1116;51.502;7.414;2024-01-06T02:04:33;20.38;;;10.23;;
2219;SDS011;1116;51.502;7.414;2024-01-06T02:07:06;16.40;;;9.95;;
2219;SDS011;1116;51.502;7.414;2024-01-06T02:09:36;22.30;;;12.18;;
2219;SDS011;1116;51.502;7.414;2024-01-06T02:12:06;17.67;;;9.85;;
2219;SDS011;1116;51.502;7.414;2024-01-06T02:14:36;18.42;;;10.23;;
2219;SDS011;1116;51.502;7.414;2024-01-06T02:17:08;21.48;;;10.65;;
2219;SDS011;1116;51.502;7.414;2024-01-06T02:19:37;18.25;;;10.15;;
2219;SDS011;1116;51.502;7.414;2024-01-06T02:22:10;17.85;;;9.73;;
2219;SDS011;1116;51.502;7.414;2024-01-06T02:24:40;16.02;;;9.48;;
2219;SDS011;1116;51.502;7.414;2024-01-06T02:27:10;18.67;;;10.20;;
2219;SDS011;1116;51.502;7.414;2024-01-06T02:29:40;19.25;;;10.00;;
2219;SDS011;1116;51.502;7.414;2024-01-06T02:32:09;19.00;;;11.18;;
2219;SDS011;1116;51.502;7.414;2024-01-06T02:34:39;19.50;;;10.80;;
2219;SDS011;1116;51.502;7.414;2024-01-06T02:37:12;16.45;;;9.63;;
2219;SDS011;1116;51.502;7.414;2024-01-06T02:39:41;21.27;;;11.38;;
2219;SDS011;1116;51.502;7.414;2024-01-06T02:42:11;19.45;;;10.40;;
2219;SDS011;1116;51.502;7.414;2024-01-06T02:44:41;15.50;;;9.63;;
2219;SDS011;1116;51.502;7.414;2024-01-06T02:47:11;18.02;;;10.05;;
2219;SDS011;1116;51.502;7.414;2024-01-06T02:49:41;15.43;;;9.05;;
2219;SDS011;1116;51.502;7.414;2024-01-06T02:52:14;18.27;;;9.63;;
2219;SDS011;1116;51.502;7.414;2024-01-06T02:54:43;15.70;;;9.07;;
2219;SDS011;1116;51.502;7.414;2024-01-06T02:57:13;17.23;;;9.52;;
2219;SDS011;1116;51.502;7.414;2024-01-06T02:59:43;18.45;;;10.43;;
2219;SDS011;1116;51.502;7.414;2024-01-06T03:02:13;19.48;;;10.23;;
2219;SDS011;1116;51.502;7.414;2024-01-06T03:04:43;17.40;;;9.48;;
2219;SDS011;1116;51.502;7.414;2024-01-06T03:07:15;17.48;;;9.38;;
2219;SDS011;1116;51.502;7.414;2024-01-06T03:09:45;18.95;;;10.77;;
2219;SDS011;1116;51.502;7.414;2024-01-06T03:12:15;18.95;;;9.13;;
2219;SDS011;1116;51.502;7.414;2024-01-06T03:14:45;19.00;;;10.25;;
2219;SDS011;1116;51.502;7.414;2024-01-06T03:17:15;19.42;;;10.10;;
2219;SDS011;1116;51.502;7.414;2024-01-06T03:19:45;20.88;;;11.55;;
2219;SDS011;1116;51.502;7.414;2024-01-06T03:22:18;18.55;;;10.25;;
2219;SDS011;1116;51.502;7.414;2024-01-06T03:24:48;24.42;;;12.45;;
2219;SDS011;1116;51.502;7.414;2024-01-06T03:27:18;25.52;;;13.57;;
2219;SDS011;1116;51.502;7.414;2024-01-06T03:29:48;20.83;;;11.65;;
2219;SDS011;1116;51.502;7.414;2024-01-06T03:32:17;20.90;;;11.93;;
2219;SDS011;1116;51.502;7.414;2024-01-06T03:34:47;25.05;;;13.90;;
2219;SDS011;1116;51.502;7.414;2024-01-06T03:37:20;24.50;;;12.20;;
2219;SDS011;1116;51.502;7.414;2024-01-06T03:39:50;28.38;;;12.13;;
2219;SDS011;1116;51.502;7.414;2024-01-06T03:42:20;21.98;;;11.18;;
2219;SDS011;1116;51.502;7.414;2024-01-06T03:44:50;23.40;;;10.95;;
2219;SDS011;1116;51.502;7.414;2024-01-06T03:47:20;24.75;;;12.13;;
2219;SDS011;1116;51.502;7.414;2024-01-06T03:49:50;19.70;;;10.30;;
2219;SDS011;1116;51.502;7.414;2024-01-06T03:52:22;20.52;;;10.32;;
2219;SDS011;1116;51.502;7.414;2024-01-06T03:54:52;21.02;;;9.52;;
2219;SDS011;1116;51.502;7.414;2024-01-06T03:57:22;18.35;;;9.52;;
2219;SDS011;1116;51.502;7.414;2024-01-06T03:59:52;17.60;;;9.77;;
2219;SDS011;1116;51.502;7.414;2024-01-06T04:02:22;24.33;;;11.70;;
2219;SDS011;1116;51.502;7.414;2024-01-06T04:04:53;21.60;;;11.10;;
2219;SDS011;1116;51.502;7.414;2024-01-06T04:07:25;19.50;;;10.20;;
2219;SDS011;1116;51.502;7.414;2024-01-06T04:09:55;20.73;;;10.65;;
2219;SDS011;1116;51.502;7.414;2024-01-06T04:12:25;21.90;;;10.70;;
2219;SDS011;1116;51.502;7.414;2024-01-06T04:14:55;21.08;;;10.20;;
2219;SDS011;1116;51.502;7.414;2024-01-06T04:17:25;23.70;;;10.45;;
2219;SDS011;1116;51.502;7.414;2024-01-06T04:19:55;19.20;;;10.52;;
2219;SDS011;1116;51.502;7.414;2024-01-06T04:22:27;19.92;;;10.25;;
2219;SDS011;1116;51.502;7.414;2024-01-06T04:24:57;23.88;;;11.07;;
2219;SDS011;1116;51.502;7.414;2024-01-06T04:27:27;20.02;;;10.90;;
2219;SDS011;1116;51.502;7.414;2024-01-06T04:29:57;22.60;;;11.70;;
2219;SDS011;1116;51.502;7.414;2024-01-06T04:32:27;17.67;;;9.35;;
2219;SDS011;1116;51.502;7.414;2024-01-06T04:34:57;21.48;;;9.70;;
2219;SDS011;1116;51.502;7.414;2024-01-06T04:37:30;20.00;;;9.95;;
2219;SDS011;1116;51.502;7.414;2024-01-06T04:39:59;17.85;;;8.65;;
2219;SDS011;1116;51.502;7.414;2024-01-06T04:42:30;15.90;;;9.38;;
2219;SDS011;1116;51.502;7.414;2024-01-06T04:45:00;18.05;;;9.98;;
2219;SDS011;1116;51.502;7.414;2024-01-06T04:47:30;21.25;;;10.30;;
2219;SDS011;1116;51.502;7.414;2024-01-06T04:50:00;18.23;;;9.60;;
2219;SDS011;1116;51.502;7.414;2024-01-06T04:52:33;16.30;;;8.60;;
2219;SDS011;1116;51.502;7.414;2024-01-06T04:55:03;18.83;;;8.88;;
2219;SDS011;1116;51.502;7.414;2024-01-06T04:57:33;19.25;;;9.27;;
2219;SDS011;1116;51.502;7.414;2024-01-06T05:00:03;18.95;;;8.93;;
2219;SDS011;1116;51.502;7.414;2024-01-06T05:02:34;19.85;;;8.73;;
2219;SDS011;1116;51.502;7.414;2024-01-06T05:05:04;21.83;;;10.00;;
2219;SDS011;1116;51.502;7.414;2024-01-06T05:07:37;19.20;;;10.05;;
2219;SDS011;1116;51.502;7.414;2024-01-06T05:10:08;18.17;;;9.60;;
2219;SDS011;1116;51.502;7.414;2024-01-06T05:12:38;19.35;;;10.20;;
2219;SDS011;1116;51.502;7.414;2024-01-06T05:15:08;20.80;;;10.57;;
2219;SDS011;1116;51.502;7.414;2024-01-06T05:17:38;20.52;;;9.63;;
2219;SDS011;1116;51.502;7.414;2024-01-06T05:20:08;21.90;;;10.30;;
2219;SDS011;1116;51.502;7.414;2024-01-06T05:22:41;20.42;;;9.40;;
2219;SDS011;1116;51.502;7.414;2024-01-06T05:25:11;19.40;;;9.77;;
2219;SDS011;1116;51.502;7.414;2024-01-06T05:27:41;18.08;;;9.85;;
2219;SDS011;1116;51.502;7.414;2024-01-06T05:30:11;23.20;;;10.23;;
2219;SDS011;1116;51.502;7.414;2024-01-06T05:32:41;20.67;;;10.13;;
2219;SDS011;1116;51.502;7.414;2024-01-06T05:35:11;18.08;;;9.75;;
2219;SDS011;1116;51.502;7.414;2024-01-06T05:37:44;23.25;;;10.45;;
2219;SDS011;1116;51.502;7.414;2024-01-06T05:40:14;21.63;;;10.45;;
2219;SDS011;1116;51.502;7.414;2024-01-06T05:42:44;20.20;;;9.50;;
2219;SDS011;1116;51.502;7.414;2024-01-06T05:45:13;20.92;;;10.55;;
2219;SDS011;1116;51.502;7.414;2024-01-06T05:47:43;19.08;;;9.95;;
2219;SDS011;1116;51.502;7.414;2024-01-06T05:50:14;19.13;;;10.07;;
2219;SDS011;1116;51.502;7.414;2024-01-06T05:52:47;24.92;;;12.57;;
2219;SDS011;1116;51.502;7.414;2024-01-06T05:55:18;22.05;;;11.48;;
2219;SDS011;1116;51.502;7.414;2024-01-06T05:57:48;16.08;;;8.63;;
2219;SDS011;1116;51.502;7.414;2024-01-06T06:00:18;21.63;;;10.13;;
2219;SDS011;1116;51.502;7.414;2024-01-06T06:02:49;20.40;;;9.85;;
2219;SDS011;1116;51.502;7.414;2024-01-06T06:05:19;17.23;;;8.85;;
2219;SDS011;1116;51.502;7.414;2024-01-06T06:07:51;18.10;;;9.85;;
2219;SDS011;1116;51.502;7.414;2024-01-06T06:10:21;22.90;;;10.02;;
2219;SDS011;1116;51.502;7.414;2024-01-06T06:12:56;17.90;;;9.50;;
2219;SDS011;1116;51.502;7.414;2024-01-06T06:15:26;19.05;;;9.23;;
2219;SDS011;1116;51.502;7.414;2024-01-06T06:17:56;19.42;;;9.93;;
2219;SDS011;1116;51.502;7.414;2024-01-06T06:20:27;20.85;;;9.60;;
2219;SDS011;1116;51.502;7.414;2024-01-06T06:22:59;21.17;;;11.00;;
2219;SDS011;1116;51.502;7.414;2024-01-06T06:25:29;21.88;;;10.45;;
2219;SDS011;1116;51.502;7.414;2024-01-06T06:27:59;20.55;;;9.85;;
2219;SDS011;1116;51.502;7.414;2024-01-06T06:30:30;21.27;;;10.60;;
2219;SDS011;1116;51.502;7.414;2024-01-06T06:33:00;24.40;;;11.50;;
2219;SDS011;1116;51.502;7.414;2024-01-06T06:35:30;21.25;;;10.98;;
2219;SDS011;1116;51.502;7.414;2024-01-06T06:38:02;19.75;;;10.05;;
2219;SDS011;1116;51.502;7.414;2024-01-06T06:40:32;21.58;;;11.07;;
2219;SDS011;1116;51.502;7.414;2024-01-06T06:43:02;21.50;;;9.63;;
2219;SDS011;1116;51.502;7.414;2024-01-06T06:45:33;19.73;;;10.60;;
2219;SDS011;1116;51.502;7.414;2024-01-06T06:48:03;20.38;;;11.50;;
2219;SDS011;1116;51.502;7.414;2024-01-06T06:50:34;22.27;;;12.00;;
2219;SDS011;1116;51.502;7.414;2024-01-06T06:53:07;21.08;;;11.57;;
2219;SDS011;1116;51.502;7.414;2024-01-06T06:55:37;21.88;;;10.07;;
2219;SDS011;1116;51.502;7.414;2024-01-06T06:58:07;20.13;;;10.00;;
2219;SDS011;1116;51.502;7.414;2024-01-06T07:00:37;20.35;;;10.90;;
2219;SDS011;1116;51.502;7.414;2024-01-06T07:03:07;22.00;;;11.02;;
2219;SDS011;1116;51.502;7.414;2024-01-06T07:05:37;19.55;;;10.50;;
2219;SDS011;1116;51.502;7.414;2024-01-06T07:08:09;20.05;;;10.02;;
2219;SDS011;1116;51.502;7.414;2024-01-06T07:10:41;19.20;;;10.05;;
2219;SDS011;1116;51.502;7.414;2024-01-06T07:13:11;20.35;;;10.13;;
2219;SDS011;1116;51.502;7.414;2024-01-06T07:15:41;18.67;;;9.63;;
2219;SDS011;1116;51.502;7.414;2024-01-06T07:18:11;23.05;;;10.85;;
2219;SDS011;1116;51.502;7.414;2024-01-06T07:20:41;19.55;;;10.40;;
2219;SDS011;1116;51.502;7.414;2024-01-06T07:23:14;19.13;;;9.70;;
2219;SDS011;1116;51.502;7.414;2024-01-06T07:25:43;19.52;;;10.68;;
2219;SDS011;1116;51.502;7.414;2024-01-06T07:28:13;21.40;;;10.18;;
2219;SDS011;1116;51.502;7.414;2024-01-06T07:30:43;20.60;;;9.23;;
2219;SDS011;1116;51.502;7.414;2024-01-06T07:33:13;18.27;;;10.13;;
2219;SDS011;1116;51.502;7.414;2024-01-06T07:35:43;20.00;;;10.05;;
2219;SDS011;1116;51.502;7.414;2024-01-06T07:38:16;22.95;;;11.25;;
2219;SDS011;1116;51.502;7.414;2024-01-06T07:40:45;20.35;;;10.55;;
2219;SDS011;1116;51.502;7.414;2024-01-06T07:43:15;21.70;;;10.05;;
2219;SDS011;1116;51.502;7.414;2024-01-06T07:45:45;19.75;;;9.90;;
2219;SDS011;1116;51.502;7.414;2024-01-06T07:48:15;21.27;;;9.55;;
2219;SDS011;1116;51.502;7.414;2024-01-06T07:50:45;21.25;;;10.27;;
2219;SDS011;1116;51.502;7.414;2024-01-06T07:53:18;20.40;;;10.48;;
2219;SDS011;1116;51.502;7.414;2024-01-06T07:55:48;21.33;;;10.40;;
2219;SDS011;1116;51.502;7.414;2024-01-06T07:58:18;24.30;;;11.38;;
2219;SDS011;1116;51.502;7.414;2024-01-06T08:00:48;26.60;;;13.48;;
2219;SDS011;1116;51.502;7.414;2024-01-06T08:03:18;29.20;;;13.60;;
2219;SDS011;1116;51.502;7.414;2024-01-06T08:05:48;26.95;;;13.27;;
2219;SDS011;1116;51.502;7.414;2024-01-06T08:08:20;30.70;;;13.55;;
2219;SDS011;1116;51.502;7.414;2024-01-06T08:10:50;29.55;;;13.60;;
2219;SDS011;1116;51.502;7.414;2024-01-06T08:13:20;24.58;;;13.00;;
2219;SDS011;1116;51.502;7.414;2024-01-06T08:15:50;30.83;;;14.18;;
2219;SDS011;1116;51.502;7.414;2024-01-06T08:18:20;26.52;;;12.45;;
2219;SDS011;1116;51.502;7.414;2024-01-06T08:20:50;30.05;;;13.82;;
2219;SDS011;1116;51.502;7.414;2024-01-06T08:23:23;32.85;;;15.18;;
2219;SDS011;1116;51.502;7.414;2024-01-06T08:25:53;31.67;;;14.65;;
2219;SDS011;1116;51.502;7.414;2024-01-06T08:28:22;30.50;;;14.02;;
2219;SDS011;1116;51.502;7.414;2024-01-06T08:30:52;32.85;;;13.65;;
2219;SDS011;1116;51.502;7.414;2024-01-06T08:33:22;33.33;;;14.65;;
2219;SDS011;1116;51.502;7.414;2024-01-06T08:35:52;31.65;;;13.60;;
2219;SDS011;1116;51.502;7.414;2024-01-06T08:38:25;24.48;;;11.55;;
2219;SDS011;1116;51.502;7.414;2024-01-06T08:40:55;25.58;;;11.23;;
2219;SDS011;1116;51.502;7.414;2024-01-06T08:43:25;21.73;;;9.57;;
2219;SDS011;1116;51.502;7.414;2024-01-06T08:45:54;22.35;;;9.32;;
2219;SDS011;1116;51.502;7.414;2024-01-06T08:48:24;24.17;;;10.57;;
2219;SDS011;1116;51.502;7.414;2024-01-06T08:50:58;19.10;;;9.00;;
2219;SDS011;1116;51.502;7.414;2024-01-06T08:53:31;20.88;;;9.77;;
2219;SDS011;1116;51.502;7.414;2024-01-06T08:56:01;20.40;;;9.35;;
2219;SDS011;1116;51.502;7.414;2024-01-06T08:58:32;23.27;;;10.13;;
2219;SDS011;1116;51.502;7.414;2024-01-06T09:01:02;17.13;;;9.02;;
2219;SDS011;1116;51.502;7.414;2024-01-06T09:03:32;21.13;;;9.60;;
2219;SDS011;1116;51.502;7.414;2024-01-06T09:06:02;21.65;;;10.88;;
2219;SDS011;1116;51.502;7.414;2024-01-06T09:08:36;19.30;;;9.27;;
2219;SDS011;1116;51.502;7.414;2024-01-06T09:11:05;17.67;;;8.55;;
2219;SDS011;1116;51.502;7.414;2024-01-06T09:13:35;16.73;;;8.10;;
2219;SDS011;1116;51.502;7.414;2024-01-06T09:16:05;17.77;;;7.20;;
2219;SDS011;1116;51.502;7.414;2024-01-06T09:18:35;16.02;;;7.20;;
2219;SDS011;1116;51.502;7.414;2024-01-06T09:21:05;14.65;;;6.90;;
2219;SDS011;1116;51.502;7.414;2024-01-06T09:23:38;15.45;;;7.72;;
2219;SDS011;1116;51.502;7.414;2024-01-06T09:26:08;15.10;;;6.20;;
2219;SDS011;1116;51.502;7.414;2024-01-06T09:28:38;12.90;;;6.25;;
2219;SDS011;1116;51.502;7.414;2024-01-06T09:31:08;13.75;;;7.07;;
2219;SDS011;1116;51.502;7.414;2024-01-06T09:33:38;15.38;;;7.07;;
2219;SDS011;1116;51.502;7.414;2024-01-06T09:36:08;10.02;;;5.05;;
2219;SDS011;1116;51.502;7.414;2024-01-06T09:38:43;14.38;;;6.38;;
2219;SDS011;1116;51.502;7.414;2024-01-06T09:41:13;10.57;;;5.55;;
2219;SDS011;1116;51.502;7.414;2024-01-06T09:43:43;13.43;;;5.68;;
2219;SDS011;1116;51.502;7.414;2024-01-06T09:46:15;12.02;;;5.95;;
2219;SDS011;1116;51.502;7.414;2024-01-06T09:48:51;10.35;;;5.28;;
2219;SDS011;1116;51.502;7.414;2024-01-06T09:51:22;10.13;;;4.75;;
2219;SDS011;1116;51.502;7.414;2024-01-06T09:53:58;13.52;;;6.05;;
2219;SDS011;1116;51.502;7.414;2024-01-06T09:56:29;9.43;;;4.80;;
2219;SDS011;1116;51.502;7.414;2024-01-06T09:58:59;10.45;;;5.15;;
2219;SDS011;1116;51.502;7.414;2024-01-06T10:01:29;14.05;;;6.25;;
2219;SDS011;1116;51.502;7.414;2024-01-06T10:03:58;11.38;;;5.85;;
2219;SDS011;1116;51.502;7.414;2024-01-06T10:06:29;11.75;;;5.72;;
2219;SDS011;1116;51.502;7.414;2024-01-06T10:09:02;10.13;;;4.70;;
2219;SDS011;1116;51.502;7.414;2024-01-06T10:11:32;13.02;;;5.40;;
2219;SDS011;1116;51.502;7.414;2024-01-06T10:14:07;9.55;;;4.85;;
2219;SDS011;1116;51.502;7.414;2024-01-06T10:16:38;9.88;;;4.72;;
2219;SDS011;1116;51.502;7.414;2024-01-06T10:19:08;11.05;;;5.07;;
2219;SDS011;1116;51.502;7.414;2024-01-06T10:21:38;10.93;;;5.53;;
2219;SDS011;1116;51.502;7.414;2024-01-06T10:24:11;10.07;;;5.47;;
2219;SDS011;1116;51.502;7.414;2024-01-06T10:26:40;11.65;;;5.65;;
2219;SDS011;1116;51.502;7.414;2024-01-06T10:29:10;12.02;;;5.30;;
2219;SDS011;1116;51.502;7.414;2024-01-06T10:31:41;11.18;;;5.78;;
2219;SDS011;1116;51.502;7.414;2024-01-06T10:34:14;11.43;;;6.07;;
2219;SDS011;1116;51.502;7.414;2024-01-06T10:36:44;10.10;;;5.13;;
2219;SDS011;1116;51.502;7.414;2024-01-06T10:39:17;13.77;;;6.05;;
2219;SDS011;1116;51.502;7.414;2024-01-06T10:41:48;15.00;;;6.47;;
2219;SDS011;1116;51.502;7.414;2024-01-06T10:44:18;11.88;;;6.57;;
2219;SDS011;1116;51.502;7.414;2024-01-06T10:46:50;14.70;;;7.05;;
2219;SDS011;1116;51.502;7.414;2024-01-06T10:49:20;13.55;;;6.82;;
2219;SDS011;1116;51.502;7.414;2024-01-06T10:51:53;17.20;;;7.50;;
2219;SDS011;1116;51.502;7.414;2024-01-06T10:54:26;17.48;;;8.25;;
2219;SDS011;1116;51.502;7.414;2024-01-06T10:56:57;18.38;;;8.30;;
2219;SDS011;1116;51.502;7.414;2024-01-06T10:59:29;21.58;;;8.00;;
2219;SDS011;1116;51.502;7.414;2024-01-06T11:02:02;16.35;;;8.00;;
2219;SDS011;1116;51.502;7.414;2024-01-06T11:04:32;18.60;;;8.25;;
2219;SDS011;1116;51.502;7.414;2024-01-06T11:07:03;19.77;;;8.68;;
2219;SDS011;1116;51.502;7.414;2024-01-06T11:09:36;16.40;;;8.13;;
2219;SDS011;1116;51.502;7.414;2024-01-06T11:12:08;17.30;;;7.70;;
2219;SDS011;1116;51.502;7.414;2024-01-06T11:14:38;22.30;;;8.27;;
2219;SDS011;1116;51.502;7.414;2024-01-06T11:17:08;18.70;;;8.52;;
2219;SDS011;1116;51.502;7.414;2024-01-06T11:19:42;18.27;;;8.88;;
2219;SDS011;1116;51.502;7.414;2024-01-06T11:22:20;14.93;;;7.30;;
2219;SDS011;1116;51.502;7.414;2024-01-06T11:24:56;18.50;;;8.48;;
2219;SDS011;1116;51.502;7.414;2024-01-06T11:27:27;19.17;;;8.55;;
2219;SDS011;1116;51.502;7.414;2024-01-06T11:29:58;17.95;;;8.23;;
2219;SDS011;1116;51.502;7.414;2024-01-06T11:32:33;13.90;;;7.40;;
2219;SDS011;1116;51.502;7.414;2024-01-06T11:35:06;15.20;;;7.72;;
2219;SDS011;1116;51.502;7.414;2024-01-06T11:37:50;13.43;;;6.03;;
2219;SDS011;1116;51.502;7.414;2024-01-06T11:40:25;15.23;;;7.07;;
2219;SDS011;1116;51.502;7.414;2024-01-06T11:43:02;15.15;;;7.40;;
2219;SDS011;1116;51.502;7.414;2024-01-06T11:45:34;18.33;;;9.43;;
2219;SDS011;1116;51.502;7.414;2024-01-06T11:48:05;18.05;;;8.40;;
2219;SDS011;1116;51.502;7.414;2024-01-06T11:50:37;19.88;;;9.23;;
2219;SDS011;1116;51.502;7.414;2024-01-06T11:53:08;21.70;;;10.90;;
2219;SDS011;1116;51.502;7.414;2024-01-06T11:55:41;21.40;;;10.00;;
2219;SDS011;1116;51.502;7.414;2024-01-06T11:58:11;24.05;;;12.80;;
2219;SDS011;1116;51.502;7.414;2024-01-06T12:00:41;29.15;;;14.80;;
2219;SDS011;1116;51.502;7.414;2024-01-06T12:03:15;34.92;;;14.07;;
2219;SDS011;1116;51.502;7.414;2024-01-06T12:05:45;27.13;;;13.27;;
2219;SDS011;1116;51.502;7.414;2024-01-06T12:08:28;30.38;;;14.82;;
2219;SDS011;1116;51.502;7.414;2024-01-06T12:11:06;33.50;;;15.30;;
2219;SDS011;1116;51.502;7.414;2024-01-06T12:13:36;25.85;;;12.40;;
2219;SDS011;1116;51.502;7.414;2024-01-06T12:16:06;26.73;;;13.13;;
2219;SDS011;1116;51.502;7.414;2024-01-06T12:18:36;26.48;;;12.57;;
2219;SDS011;1116;51.502;7.414;2024-01-06T12:21:06;29.05;;;13.80;;
2219;SDS011;1116;51.502;7.414;2024-01-06T12:23:36;27.35;;;13.05;;
2219;SDS011;1116;51.502;7.414;2024-01-06T12:26:09;25.08;;;12.60;;
2219;SDS011;1116;51.502;7.414;2024-01-06T12:28:39;28.15;;;12.73;;
2219;SDS011;1116;51.502;7.414;2024-01-06T12:31:09;23.02;;;12.32;;
2219;SDS011;1116;51.502;7.414;2024-01-06T12:33:39;23.00;;;11.27;;
2219;SDS011;1116;51.502;7.414;2024-01-06T12:36:09;28.00;;;13.00;;
2219;SDS011;1116;51.502;7.414;2024-01-06T12:38:52;21.98;;;11.02;;
2219;SDS011;1116;51.502;7.414;2024-01-06T12:41:25;24.25;;;11.73;;
2219;SDS011;1116;51.502;7.414;2024-01-06T12:43:56;29.92;;;12.77;;
2219;SDS011;1116;51.502;7.414;2024-01-06T12:46:26;27.02;;;12.43;;
2219;SDS011;1116;51.502;7.414;2024-01-06T12:48:56;27.52;;;12.75;;
2219;SDS011;1116;51.502;7.414;2024-01-06T12:51:26;21.85;;;11.02;;
2219;SDS011;1116;51.502;7.414;2024-01-06T12:53:56;29.60;;;13.13;;
2219;SDS011;1116;51.502;7.414;2024-01-06T12:56:29;23.77;;;11.25;;
2219;SDS011;1116;51.502;7.414;2024-01-06T12:58:58;20.20;;;10.13;;
2219;SDS011;1116;51.502;7.414;2024-01-06T13:01:29;19.30;;;9.15;;
2219;SDS011;1116;51.502;7.414;2024-01-06T13:03:59;18.73;;;9.13;;
2219;SDS011;1116;51.502;7.414;2024-01-06T13:06:29;15.85;;;8.25;;
2219;SDS011;1116;51.502;7.414;2024-01-06T13:08:59;17.48;;;8.90;;
2219;SDS011;1116;51.502;7.414;2024-01-06T13:11:35;17.48;;;7.90;;
2219;SDS011;1116;51.502;7.414;2024-01-06T13:14:05;13.50;;;7.35;;
2219;SDS011;1116;51.502;7.414;2024-01-06T13:16:35;14.43;;;8.55;;
2219;SDS011;1116;51.502;7.414;2024-01-06T13:19:05;13.57;;;7.65;;
2219;SDS011;1116;51.502;7.414;2024-01-06T13:21:35;14.88;;;7.65;;
2219;SDS011;1116;51.502;7.414;2024-01-06T13:24:06;17.30;;;8.50;;
2219;SDS011;1116;51.502;7.414;2024-01-06T13:26:39;19.00;;;8.90;;
2219;SDS011;1116;51.502;7.414;2024-01-06T13:29:09;15.07;;;7.57;;
2219;SDS011;1116;51.502;7.414;2024-01-06T13:31:39;18.50;;;9.10;;
2219;SDS011;1116;51.502;7.414;2024-01-06T13:34:09;15.32;;;8.15;;
2219;SDS011;1116;51.502;7.414;2024-01-06T13:36:39;16.13;;;7.85;;
2219;SDS011;1116;51.502;7.414;2024-01-06T13:39:09;16.90;;;8.50;;
2219;SDS011;1116;51.502;7.414;2024-01-06T13:41:50;19.10;;;9.10;;
2219;SDS011;1116;51.502;7.414;2024-01-06T13:44:20;15.00;;;8.73;;
2219;SDS011;1116;51.502;7.414;2024-01-06T13:46:50;18.55;;;8.50;;
2219;SDS011;1116;51.502;7.414;2024-01-06T13:49:21;18.92;;;9.48;;
2219;SDS011;1116;51.502;7.414;2024-01-06T13:51:51;17.90;;;7.95;;
2219;SDS011;1116;51.502;7.414;2024-01-06T13:54:21;18.52;;;7.55;;
2219;SDS011;1116;51.502;7.414;2024-01-06T13:56:54;16.00;;;8.00;;
2219;SDS011;1116;51.502;7.414;2024-01-06T13:59:23;16.38;;;8.95;;
2219;SDS011;1116;51.502;7.414;2024-01-06T14:01:53;15.40;;;8.30;;
2219;SDS011;1116;51.502;7.414;2024-01-06T14:04:23;22.17;;;8.60;;
2219;SDS011;1116;51.502;7.414;2024-01-06T14:06:54;13.18;;;6.75;;
2219;SDS011;1116;51.502;7.414;2024-01-06T14:09:26;12.95;;;6.75;;
2219;SDS011;1116;51.502;7.414;2024-01-06T14:11:59;14.98;;;6.53;;
2219;SDS011;1116;51.502;7.414;2024-01-06T14:14:31;18.02;;;8.00;;
2219;SDS011;1116;51.502;7.414;2024-01-06T14:17:01;15.43;;;7.75;;
2219;SDS011;1116;51.502;7.414;2024-01-06T14:19:31;16.02;;;7.93;;
2219;SDS011;1116;51.502;7.414;2024-01-06T14:22:01;15.93;;;6.85;;
2219;SDS011;1116;51.502;7.414;2024-01-06T14:24:32;14.90;;;7.32;;
2219;SDS011;1116;51.502;7.414;2024-01-06T14:27:05;14.45;;;7.78;;
2219;SDS011;1116;51.502;7.414;2024-01-06T14:29:35;17.48;;;7.90;;
2219;SDS011;1116;51.502;7.414;2024-01-06T14:32:05;18.15;;;8.20;;
2219;SDS011;1116;51.502;7.414;2024-01-06T14:34:36;16.58;;;7.78;;
2219;SDS011;1116;51.502;7.414;2024-01-06T14:37:06;16.58;;;7.25;;
2219;SDS011;1116;51.502;7.414;2024-01-06T14:39:35;13.13;;;7.00;;
2219;SDS011;1116;51.502;7.414;2024-01-06T14:42:08;14.82;;;6.75;;
2219;SDS011;1116;51.502;7.414;2024-01-06T14:44:38;14.82;;;7.15;;
2219;SDS011;1116;51.502;7.414;2024-01-06T14:47:08;14.63;;;7.20;;
2219;SDS011;1116;51.502;7.414;2024-01-06T14:49:39;15.68;;;6.93;;
2219;SDS011;1116;51.502;7.414;2024-01-06T14:52:09;14.52;;;6.90;;
2219;SDS011;1116;51.502;7.414;2024-01-06T14:54:39;14.82;;;7.32;;
2219;SDS011;1116;51.502;7.414;2024-01-06T14:57:11;15.15;;;6.97;;
2219;SDS011;1116;51.502;7.414;2024-01-06T14:59:41;11.75;;;6.25;;
2219;SDS011;1116;51.502;7.414;2024-01-06T15:02:11;11.70;;;6.22;;
2219;SDS011;1116;51.502;7.414;2024-01-06T15:04:42;14.75;;;6.28;;
2219;SDS011;1116;51.502;7.414;2024-01-06T15:07:12;14.65;;;6.32;;
2219;SDS011;1116;51.502;7.414;2024-01-06T15:09:42;13.48;;;6.40;;
2219;SDS011;1116;51.502;7.414;2024-01-06T15:12:15;18.25;;;7.18;;
2219;SDS011;1116;51.502;7.414;2024-01-06T15:14:44;15.88;;;6.53;;
2219;SDS011;1116;51.502;7.414;2024-01-06T15:17:14;14.48;;;7.03;;